Tadoule Lake Airport
CYBQ : now visible

Airfield :











YOU CAN JOIN US ON...

 
LOGIN :

Register | Disclaimer

   EN    FR    IT 

 









Legend :    VFR   Marginal VFR   IFR   Intensive IFR   Very Intensive IFR
Visi :
Ceiling :
>= 8 km
>= 3000ft
5 to 8 km
1000 to 3000 ft
1500m to 5 km
500 to 1000 ft
800 to 1500m
200 to 500 ft
< 800m
< 200 ft
Symbols :   Thunderstorms  Fog  Heavy snow  Heavy precipitations  Wind > 20 kt






- Airport Elevation : 923 ft
- IATA code : XTL


CYBQ - Tadoule Lake

CURRENT METAR :
  • 220419Z AUTO 01010KT 9SM -SN OVC025 M16/M18 A2936 RMK SLP972

EXPIRED METARs :
  • 220402Z AUTO 01009KT 9SM -SN BKN023 BKN031 OVC055 M16/M18 A2934 RMK SLP967
  • 220352Z AUTO 02011KT 6SM -SN BKN029 OVC055 M16/M18 A2934 RMK SLP965
  • 220300Z AUTO 02007KT 2SM -SN OVC032 M15/M17 A2930 RMK VIS VRB 1 1/2-3 SLP953
  • 220255Z AUTO 02007KT 2 1/2SM -SN OVC036 M15/M17 A2931 RMK VIS VRB 1 1/2-3 SLP954
  • 220228Z AUTO 02007KT 6SM -SN OVC033 M15/M16 A2929 RMK SLP948
  • 220200Z AUTO 04006KT 1SM -SN VV012 M14/M16 A2928 RMK SLP945
  • 220151Z AUTO 04005KT 3/4SM -SN VV010 M14/M16 A2928 RMK SLP945

TAF N/A



MET'MAP, your aeronautical weather chart ! - Copyright ORBIFLY December 2007 - Disclaimer

ORBIFLY MET'MAP TEAM :

Programming & Development : Alexandra Zaïnal
Concept & original design : Baudouin d'Aumeries
Assistance for programming : Marc-Olivier Méhu
Technical & hardware support : Manuel Goepfert

Contact : metmap@orbifly.com




SOURCES & CREDITS :

   NOAA       Earth
Advisory